PWSweather.com
Personal Weather Stations
Station Observations

ChardChardGB

Lat: 50.877408, Lon: -2.94964741

Elevation: 341

Station Type: WS3083

http://www.merriott-astro.co.uk/weather/index.htm

High Low Average
Temperature 47.7°F8.7°C 43.9°F6.6°C 45.0°F7.2°C
Dew Point 43.7°F6.5°C 40.6°F4.8°C 41.8°F5.4°C
Winds 8.5 mph 13.7 kmh Calm Calm 1.0 mph E1.6 kmh E
Wind Gusts 11.4 mph18.3 kmh -- 2.0 mph3.2 kmh
Humidity 91% 78% 89%
Pressure 29.65 in1004.1 mb 29.32 in992.9 mb -
Precipitation 0.09 in2.3 mm - -
Hour Temp Dew Point Humidity Winds Wind Gusts Pressure Precip Precip Rate Daily Precip Total
12:00 AM 47.1°F8.4°C 40.6°F4.8°C 78% 1.7 mph S2.7 kmh S 3.1 mph5.0 kmh 29.65 in1004.1 mb 0.00 in0.0 mm 0.00 in0.0 mm 0.00 in0.0 mm
12:10 AM 47.1°F8.4°C 40.6°F4.8°C 78% 1.8 mph SSW2.9 kmh SSW 4.5 mph7.2 kmh 29.64 in1003.7 mb 0.00 in0.0 mm 0.00 in0.0 mm 0.00 in0.0 mm
12:20 AM 47.1°F8.4°C 40.6°F4.8°C 78% 1.3 mph S2.1 kmh S 3.8 mph6.1 kmh 29.65 in1004.1 mb 0.00 in0.0 mm 0.00 in0.0 mm 0.00 in0.0 mm
12:30 AM 46.9°F8.3°C 40.8°F4.9°C 79% 1.4 mph SSW2.3 kmh SSW 3.8 mph6.1 kmh 29.65 in1004.1 mb 0.00 in0.0 mm 0.00 in0.0 mm 0.00 in0.0 mm
12:40 AM 46.9°F8.3°C 40.8°F4.9°C 79% Calm Calm -- 29.64 in1003.7 mb 0.00 in0.0 mm 0.00 in0.0 mm 0.00 in0.0 mm
12:50 AM 46.9°F8.3°C 40.8°F4.9°C 79% Calm Calm -- 29.63 in1003.4 mb 0.00 in0.0 mm 0.00 in0.0 mm 0.00 in0.0 mm
01:00 AM 47.1°F8.4°C 40.9°F4.9°C 79% Calm Calm -- 29.62 in1003.0 mb 0.00 in0.0 mm 0.00 in0.0 mm 0.00 in0.0 mm
01:10 AM 47.1°F8.4°C 40.9°F4.9°C 79% Calm Calm -- 29.61 in1002.7 mb 0.00 in0.0 mm 0.00 in0.0 mm 0.00 in0.0 mm
01:20 AM 47.1°F8.4°C 41.3°F5.2°C 80% Calm Calm -- 29.62 in1003.0 mb 0.00 in0.0 mm 0.00 in0.0 mm 0.00 in0.0 mm
01:30 AM 47.3°F8.5°C 41.8°F5.4°C 81% 1.2 mph WNW1.9 kmh WNW 3.8 mph6.1 kmh 29.60 in1002.4 mb 0.00 in0.0 mm 0.00 in0.0 mm 0.00 in0.0 mm
01:40 AM 46.9°F8.3°C 41.1°F5.1°C 80% 2.2 mph S3.5 kmh S 5.4 mph8.7 kmh 29.59 in1002.0 mb 0.00 in0.0 mm 0.00 in0.0 mm 0.00 in0.0 mm
01:50 AM 46.6°F8.1°C 40.7°F4.8°C 80% Calm Calm -- 29.59 in1002.0 mb 0.00 in0.0 mm 0.00 in0.0 mm 0.00 in0.0 mm
02:00 AM 46.6°F8.1°C 40.7°F4.8°C 80% Calm Calm -- 29.59 in1002.0 mb 0.00 in0.0 mm 0.00 in0.0 mm 0.00 in0.0 mm
02:10 AM 46.6°F8.1°C 40.7°F4.8°C 80% Calm Calm -- 29.58 in1001.7 mb 0.00 in0.0 mm 0.00 in0.0 mm 0.00 in0.0 mm
02:20 AM 46.6°F8.1°C 40.7°F4.8°C 80% Calm Calm -- 29.57 in1001.4 mb 0.00 in0.0 mm 0.00 in0.0 mm 0.00 in0.0 mm
02:30 AM 46.6°F8.1°C 41.1°F5.1°C 81% Calm Calm -- 29.57 in1001.4 mb 0.00 in0.0 mm 0.00 in0.0 mm 0.00 in0.0 mm
02:40 AM 46.8°F8.2°C 41.2°F5.1°C 81% Calm Calm -- 29.57 in1001.4 mb 0.00 in0.0 mm 0.00 in0.0 mm 0.00 in0.0 mm
02:50 AM 46.9°F8.3°C 41.4°F5.2°C 81% Calm Calm -- 29.57 in1001.4 mb 0.00 in0.0 mm 0.00 in0.0 mm 0.00 in0.0 mm
03:00 AM 46.9°F8.3°C 41.7°F5.4°C 82% Calm Calm -- 29.56 in1001.0 mb 0.01 in0.3 mm 0.01 in0.3 mm 0.01 in0.3 mm
03:10 AM 46.9°F8.3°C 41.7°F5.4°C 82% Calm Calm -- 29.55 in1000.7 mb 0.01 in0.3 mm 0.00 in0.0 mm 0.01 in0.3 mm
03:20 AM 46.8°F8.2°C 41.9°F5.5°C 83% 0.6 mph S1.0 kmh S 3.1 mph5.0 kmh 29.56 in1001.0 mb 0.01 in0.3 mm 0.00 in0.0 mm 0.01 in0.3 mm
03:30 AM 46.6°F8.1°C 41.7°F5.4°C 83% 1.0 mph E1.6 kmh E 3.1 mph5.0 kmh 29.56 in1001.0 mb 0.02 in0.5 mm 0.06 in1.5 mm 0.02 in0.5 mm
03:40 AM 46.0°F7.8°C 41.2°F5.1°C 83% Calm Calm -- 29.55 in1000.7 mb 0.02 in0.5 mm 0.00 in0.0 mm 0.02 in0.5 mm
03:50 AM 45.7°F7.6°C 40.8°F4.9°C 83% 0.3 mph SW0.5 kmh SW 2.2 mph3.5 kmh 29.55 in1000.7 mb 0.04 in1.0 mm 0.12 in3.0 mm 0.04 in1.0 mm
04:00 AM 45.3°F7.4°C 42.0°F5.6°C 88% 0.2 mph E0.3 kmh E 3.1 mph5.0 kmh 29.55 in1000.7 mb 0.04 in1.0 mm 0.00 in0.0 mm 0.05 in1.3 mm
04:10 AM 45.1°F7.3°C 41.8°F5.4°C 88% 0.9 mph E1.4 kmh E 3.1 mph5.0 kmh 29.53 in1000.0 mb 0.05 in1.3 mm 0.06 in1.5 mm 0.06 in1.5 mm
04:20 AM 44.8°F7.1°C 41.4°F5.2°C 88% 1.5 mph ESE2.4 kmh ESE 3.8 mph6.1 kmh 29.53 in1000.0 mb 0.05 in1.3 mm 0.00 in0.0 mm 0.06 in1.5 mm
04:30 AM 44.6°F7.0°C 41.6°F5.3°C 89% 1.1 mph E1.8 kmh E 3.8 mph6.1 kmh 29.52 in999.7 mb 0.05 in1.3 mm 0.00 in0.0 mm 0.07 in1.8 mm
04:40 AM 44.4°F6.9°C 41.4°F5.2°C 89% 1.3 mph E2.1 kmh E 3.1 mph5.0 kmh 29.52 in999.7 mb 0.05 in1.3 mm 0.00 in0.0 mm 0.07 in1.8 mm
04:50 AM 44.4°F6.9°C 41.4°F5.2°C 89% 0.7 mph E1.1 kmh E 3.8 mph6.1 kmh 29.52 in999.7 mb 0.04 in1.0 mm 0.00 in0.0 mm 0.07 in1.8 mm
05:00 AM 44.2°F6.8°C 41.2°F5.1°C 89% 0.5 mph ENE0.8 kmh ENE 3.1 mph5.0 kmh 29.51 in999.3 mb 0.04 in1.0 mm 0.00 in0.0 mm 0.08 in2.0 mm
05:10 AM 44.1°F6.7°C 41.3°F5.2°C 90% Calm Calm -- 29.51 in999.3 mb 0.02 in0.5 mm 0.00 in0.0 mm 0.08 in2.0 mm
05:20 AM 44.1°F6.7°C 41.3°F5.2°C 90% 0.7 mph SSE1.1 kmh SSE 3.1 mph5.0 kmh 29.50 in999.0 mb 0.04 in1.0 mm 0.12 in3.0 mm 0.09 in2.3 mm
05:30 AM 44.1°F6.7°C 41.3°F5.2°C 90% 2.2 mph SE3.5 kmh SE 3.1 mph5.0 kmh 29.50 in999.0 mb 0.02 in0.5 mm 0.00 in0.0 mm 0.09 in2.3 mm
05:40 AM 44.1°F6.7°C 41.3°F5.2°C 90% 2.2 mph SE3.5 kmh SE 2.2 mph3.5 kmh 29.48 in998.3 mb 0.02 in0.5 mm 0.00 in0.0 mm 0.09 in2.3 mm
05:50 AM 43.9°F6.6°C 41.1°F5.1°C 90% 4.4 mph E7.1 kmh E 6.0 mph9.7 kmh 29.47 in998.0 mb 0.00 in0.0 mm 0.00 in0.0 mm 0.09 in2.3 mm
06:00 AM 44.1°F6.7°C 41.3°F5.2°C 90% 1.3 mph ESE2.1 kmh ESE 3.8 mph6.1 kmh 29.47 in998.0 mb 0.00 in0.0 mm 0.00 in0.0 mm 0.09 in2.3 mm
06:10 AM 44.2°F6.8°C 41.8°F5.4°C 91% 2.5 mph ENE4.0 kmh ENE 6.0 mph9.7 kmh 29.47 in998.0 mb 0.00 in0.0 mm 0.00 in0.0 mm 0.09 in2.3 mm
06:20 AM 44.2°F6.8°C 41.8°F5.4°C 91% 0.9 mph E1.4 kmh E 2.2 mph3.5 kmh 29.46 in997.6 mb 0.00 in0.0 mm 0.00 in0.0 mm 0.09 in2.3 mm
06:30 AM 44.2°F6.8°C 41.8°F5.4°C 91% 0.7 mph E1.1 kmh E 0.7 mph1.1 kmh 29.46 in997.6 mb 0.00 in0.0 mm 0.00 in0.0 mm 0.09 in2.3 mm
06:40 AM 44.2°F6.8°C 41.8°F5.4°C 91% 0.7 mph E1.1 kmh E 0.7 mph1.1 kmh 29.46 in997.6 mb 0.00 in0.0 mm 0.00 in0.0 mm 0.09 in2.3 mm
06:50 AM 44.2°F6.8°C 41.8°F5.4°C 91% 0.7 mph E1.1 kmh E 0.7 mph1.1 kmh 29.46 in997.6 mb 0.00 in0.0 mm 0.00 in0.0 mm 0.09 in2.3 mm
07:00 AM 44.2°F6.8°C 41.8°F5.4°C 91% 0.7 mph E1.1 kmh E 0.7 mph1.1 kmh 29.45 in997.3 mb 0.00 in0.0 mm 0.00 in0.0 mm 0.09 in2.3 mm
07:10 AM 44.2°F6.8°C 41.8°F5.4°C 91% 0.7 mph E1.1 kmh E 0.7 mph1.1 kmh 29.45 in997.3 mb 0.00 in0.0 mm 0.00 in0.0 mm 0.09 in2.3 mm
07:20 AM 44.2°F6.8°C 41.8°F5.4°C 91% 0.7 mph E1.1 kmh E 0.7 mph1.1 kmh 29.44 in997.0 mb 0.00 in0.0 mm 0.00 in0.0 mm 0.09 in2.3 mm
07:30 AM 44.2°F6.8°C 41.8°F5.4°C 91% 0.7 mph E1.1 kmh E 0.7 mph1.1 kmh 29.43 in996.6 mb 0.00 in0.0 mm 0.00 in0.0 mm 0.09 in2.3 mm
07:40 AM 44.2°F6.8°C 41.8°F5.4°C 91% 0.7 mph E1.1 kmh E 0.7 mph1.1 kmh 29.43 in996.6 mb 0.00 in0.0 mm 0.00 in0.0 mm 0.09 in2.3 mm
07:50 AM 44.2°F6.8°C 41.8°F5.4°C 91% 0.7 mph E1.1 kmh E 0.7 mph1.1 kmh 29.42 in996.3 mb 0.00 in0.0 mm 0.00 in0.0 mm 0.09 in2.3 mm
08:00 AM 44.2°F6.8°C 41.8°F5.4°C 91% 0.7 mph E1.1 kmh E 0.7 mph1.1 kmh 29.41 in995.9 mb 0.00 in0.0 mm 0.00 in0.0 mm 0.09 in2.3 mm
08:10 AM 44.2°F6.8°C 41.8°F5.4°C 91% 0.7 mph E1.1 kmh E 0.7 mph1.1 kmh 29.41 in995.9 mb 0.00 in0.0 mm 0.00 in0.0 mm 0.09 in2.3 mm
08:20 AM 44.2°F6.8°C 41.8°F5.4°C 91% 0.7 mph E1.1 kmh E 0.7 mph1.1 kmh 29.41 in995.9 mb 0.00 in0.0 mm 0.00 in0.0 mm 0.09 in2.3 mm
08:30 AM 44.2°F6.8°C 41.8°F5.4°C 91% 0.7 mph E1.1 kmh E 0.7 mph1.1 kmh 29.40 in995.6 mb 0.00 in0.0 mm 0.00 in0.0 mm 0.09 in2.3 mm
08:40 AM 44.2°F6.8°C 41.8°F5.4°C 91% 0.7 mph E1.1 kmh E 0.7 mph1.1 kmh 29.40 in995.6 mb 0.00 in0.0 mm 0.00 in0.0 mm 0.09 in2.3 mm
08:50 AM 44.2°F6.8°C 41.8°F5.4°C 91% 0.7 mph E1.1 kmh E 0.7 mph1.1 kmh 29.40 in995.6 mb 0.00 in0.0 mm 0.00 in0.0 mm 0.09 in2.3 mm
09:00 AM 44.2°F6.8°C 41.8°F5.4°C 91% 0.7 mph E1.1 kmh E 0.7 mph1.1 kmh 29.40 in995.6 mb 0.00 in0.0 mm 0.00 in0.0 mm 0.09 in2.3 mm
09:10 AM 44.2°F6.8°C 41.8°F5.4°C 91% 0.7 mph E1.1 kmh E 0.7 mph1.1 kmh 29.39 in995.3 mb 0.00 in0.0 mm 0.00 in0.0 mm 0.09 in2.3 mm
09:20 AM 44.2°F6.8°C 41.8°F5.4°C 91% 0.7 mph E1.1 kmh E 0.7 mph1.1 kmh 29.39 in995.3 mb 0.00 in0.0 mm 0.00 in0.0 mm 0.09 in2.3 mm
09:30 AM 44.2°F6.8°C 41.8°F5.4°C 91% 0.7 mph E1.1 kmh E 0.7 mph1.1 kmh 29.38 in994.9 mb 0.00 in0.0 mm 0.00 in0.0 mm 0.09 in2.3 mm
09:40 AM 44.2°F6.8°C 41.8°F5.4°C 91% 0.7 mph E1.1 kmh E 0.7 mph1.1 kmh 29.38 in994.9 mb 0.00 in0.0 mm 0.00 in0.0 mm 0.09 in2.3 mm
09:50 AM 44.2°F6.8°C 41.8°F5.4°C 91% 0.7 mph E1.1 kmh E 0.7 mph1.1 kmh 29.38 in994.9 mb 0.00 in0.0 mm 0.00 in0.0 mm 0.09 in2.3 mm
10:00 AM 44.2°F6.8°C 41.8°F5.4°C 91% 0.7 mph E1.1 kmh E 0.7 mph1.1 kmh 29.37 in994.6 mb 0.00 in0.0 mm 0.00 in0.0 mm 0.09 in2.3 mm
10:10 AM 44.2°F6.8°C 41.8°F5.4°C 91% 0.7 mph E1.1 kmh E 0.7 mph1.1 kmh 29.37 in994.6 mb 0.00 in0.0 mm 0.00 in0.0 mm 0.09 in2.3 mm
10:20 AM 44.2°F6.8°C 41.8°F5.4°C 91% 0.7 mph E1.1 kmh E 0.7 mph1.1 kmh 29.37 in994.6 mb 0.00 in0.0 mm 0.00 in0.0 mm 0.09 in2.3 mm
10:30 AM 44.2°F6.8°C 41.8°F5.4°C 91% 0.7 mph E1.1 kmh E 0.7 mph1.1 kmh 29.37 in994.6 mb 0.00 in0.0 mm 0.00 in0.0 mm 0.09 in2.3 mm
10:40 AM 44.2°F6.8°C 41.8°F5.4°C 91% 0.7 mph E1.1 kmh E 0.7 mph1.1 kmh 29.37 in994.6 mb 0.00 in0.0 mm 0.00 in0.0 mm 0.09 in2.3 mm
10:50 AM 44.2°F6.8°C 41.8°F5.4°C 91% 0.7 mph E1.1 kmh E 0.7 mph1.1 kmh 29.37 in994.6 mb 0.00 in0.0 mm 0.00 in0.0 mm 0.09 in2.3 mm
11:00 AM 44.2°F6.8°C 41.8°F5.4°C 91% 0.7 mph E1.1 kmh E 0.7 mph1.1 kmh 29.37 in994.6 mb 0.00 in0.0 mm 0.00 in0.0 mm 0.09 in2.3 mm
11:10 AM 44.2°F6.8°C 41.8°F5.4°C 91% 0.7 mph E1.1 kmh E 0.7 mph1.1 kmh 29.37 in994.6 mb 0.00 in0.0 mm 0.00 in0.0 mm 0.09 in2.3 mm
11:20 AM 44.2°F6.8°C 41.8°F5.4°C 91% 0.7 mph E1.1 kmh E 0.7 mph1.1 kmh 29.35 in993.9 mb 0.00 in0.0 mm 0.00 in0.0 mm 0.09 in2.3 mm
11:30 AM 44.2°F6.8°C 41.8°F5.4°C 91% 0.7 mph E1.1 kmh E 0.7 mph1.1 kmh 29.35 in993.9 mb 0.00 in0.0 mm 0.00 in0.0 mm 0.09 in2.3 mm
11:40 AM 44.2°F6.8°C 41.8°F5.4°C 91% 0.7 mph E1.1 kmh E 0.7 mph1.1 kmh 29.34 in993.6 mb 0.00 in0.0 mm 0.00 in0.0 mm 0.09 in2.3 mm
11:50 AM 44.2°F6.8°C 41.8°F5.4°C 91% 0.7 mph E1.1 kmh E 0.7 mph1.1 kmh 29.34 in993.6 mb 0.00 in0.0 mm 0.00 in0.0 mm 0.09 in2.3 mm
12:00 PM 44.2°F6.8°C 41.8°F5.4°C 91% 0.7 mph E1.1 kmh E 0.7 mph1.1 kmh 29.34 in993.6 mb 0.00 in0.0 mm 0.00 in0.0 mm 0.09 in2.3 mm
12:10 PM 44.2°F6.8°C 41.8°F5.4°C 91% 0.7 mph E1.1 kmh E 0.7 mph1.1 kmh 29.33 in993.2 mb 0.00 in0.0 mm 0.00 in0.0 mm 0.09 in2.3 mm
12:20 PM 44.2°F6.8°C 41.8°F5.4°C 91% 0.7 mph E1.1 kmh E 0.7 mph1.1 kmh 29.33 in993.2 mb 0.00 in0.0 mm 0.00 in0.0 mm 0.09 in2.3 mm
12:30 PM 44.2°F6.8°C 41.8°F5.4°C 91% 0.7 mph E1.1 kmh E 0.7 mph1.1 kmh 29.33 in993.2 mb 0.00 in0.0 mm 0.00 in0.0 mm 0.09 in2.3 mm
12:40 PM 44.2°F6.8°C 41.8°F5.4°C 91% 0.7 mph E1.1 kmh E 0.7 mph1.1 kmh 29.33 in993.2 mb 0.00 in0.0 mm 0.00 in0.0 mm 0.09 in2.3 mm
12:50 PM 44.2°F6.8°C 41.8°F5.4°C 91% 0.7 mph E1.1 kmh E 0.7 mph1.1 kmh 29.33 in993.2 mb 0.00 in0.0 mm 0.00 in0.0 mm 0.09 in2.3 mm
01:00 PM 44.2°F6.8°C 41.8°F5.4°C 91% 0.7 mph E1.1 kmh E 0.7 mph1.1 kmh 29.33 in993.2 mb 0.00 in0.0 mm 0.00 in0.0 mm 0.09 in2.3 mm
01:10 PM 44.2°F6.8°C 41.8°F5.4°C 91% 0.7 mph E1.1 kmh E 0.7 mph1.1 kmh 29.34 in993.6 mb 0.00 in0.0 mm 0.00 in0.0 mm 0.09 in2.3 mm
01:20 PM 44.2°F6.8°C 41.8°F5.4°C 91% 0.7 mph E1.1 kmh E 0.7 mph1.1 kmh 29.33 in993.2 mb 0.00 in0.0 mm 0.00 in0.0 mm 0.09 in2.3 mm
01:30 PM 44.2°F6.8°C 41.8°F5.4°C 91% 0.7 mph E1.1 kmh E 0.7 mph1.1 kmh 29.33 in993.2 mb 0.00 in0.0 mm 0.00 in0.0 mm 0.09 in2.3 mm
01:40 PM 44.2°F6.8°C 41.8°F5.4°C 91% 0.7 mph E1.1 kmh E 0.7 mph1.1 kmh 29.33 in993.2 mb 0.00 in0.0 mm 0.00 in0.0 mm 0.09 in2.3 mm
01:50 PM 44.2°F6.8°C 41.8°F5.4°C 91% 0.7 mph E1.1 kmh E 0.7 mph1.1 kmh 29.33 in993.2 mb 0.00 in0.0 mm 0.00 in0.0 mm 0.09 in2.3 mm
02:00 PM 44.2°F6.8°C 41.8°F5.4°C 91% 0.7 mph E1.1 kmh E 0.7 mph1.1 kmh 29.32 in992.9 mb 0.00 in0.0 mm 0.00 in0.0 mm 0.09 in2.3 mm
02:10 PM 44.2°F6.8°C 41.8°F5.4°C 91% 0.7 mph E1.1 kmh E 0.7 mph1.1 kmh 29.33 in993.2 mb 0.00 in0.0 mm 0.00 in0.0 mm 0.09 in2.3 mm
02:20 PM 44.2°F6.8°C 41.8°F5.4°C 91% 0.7 mph E1.1 kmh E 0.7 mph1.1 kmh 29.33 in993.2 mb 0.00 in0.0 mm 0.00 in0.0 mm 0.09 in2.3 mm
02:30 PM 44.2°F6.8°C 41.8°F5.4°C 91% 0.7 mph E1.1 kmh E 0.7 mph1.1 kmh 29.33 in993.2 mb 0.00 in0.0 mm 0.00 in0.0 mm 0.09 in2.3 mm
02:40 PM 44.2°F6.8°C 41.8°F5.4°C 91% 0.7 mph E1.1 kmh E 0.7 mph1.1 kmh 29.33 in993.2 mb 0.00 in0.0 mm 0.00 in0.0 mm 0.09 in2.3 mm
02:50 PM 44.2°F6.8°C 41.8°F5.4°C 91% 0.7 mph E1.1 kmh E 0.7 mph1.1 kmh 29.33 in993.2 mb 0.00 in0.0 mm 0.00 in0.0 mm 0.09 in2.3 mm
03:00 PM 44.2°F6.8°C 41.8°F5.4°C 91% 0.7 mph E1.1 kmh E 0.7 mph1.1 kmh 29.33 in993.2 mb 0.00 in0.0 mm 0.00 in0.0 mm 0.09 in2.3 mm
03:10 PM 44.2°F6.8°C 41.8°F5.4°C 91% 0.7 mph E1.1 kmh E 0.7 mph1.1 kmh 29.32 in992.9 mb 0.00 in0.0 mm 0.00 in0.0 mm 0.09 in2.3 mm
03:20 PM 44.2°F6.8°C 41.8°F5.4°C 91% 0.7 mph E1.1 kmh E 0.7 mph1.1 kmh 29.33 in993.2 mb 0.00 in0.0 mm 0.00 in0.0 mm 0.09 in2.3 mm
03:30 PM 44.2°F6.8°C 41.8°F5.4°C 91% 0.7 mph E1.1 kmh E 0.7 mph1.1 kmh 29.33 in993.2 mb 0.00 in0.0 mm 0.00 in0.0 mm 0.09 in2.3 mm
03:40 PM 44.2°F6.8°C 41.8°F5.4°C 91% 0.7 mph E1.1 kmh E 0.7 mph1.1 kmh 29.33 in993.2 mb 0.00 in0.0 mm 0.00 in0.0 mm 0.09 in2.3 mm
03:50 PM 44.2°F6.8°C 41.8°F5.4°C 91% 0.7 mph E1.1 kmh E 0.7 mph1.1 kmh 29.33 in993.2 mb 0.00 in0.0 mm 0.00 in0.0 mm 0.09 in2.3 mm
04:00 PM 44.2°F6.8°C 41.8°F5.4°C 91% 0.7 mph E1.1 kmh E 0.7 mph1.1 kmh 29.33 in993.2 mb 0.00 in0.0 mm 0.00 in0.0 mm 0.09 in2.3 mm
04:10 PM 44.2°F6.8°C 41.8°F5.4°C 91% 0.7 mph E1.1 kmh E 0.7 mph1.1 kmh 29.33 in993.2 mb 0.00 in0.0 mm 0.00 in0.0 mm 0.09 in2.3 mm
04:20 PM 44.2°F6.8°C 41.8°F5.4°C 91% 0.7 mph E1.1 kmh E 0.7 mph1.1 kmh 29.34 in993.6 mb 0.00 in0.0 mm 0.00 in0.0 mm 0.09 in2.3 mm
04:30 PM 44.2°F6.8°C 41.8°F5.4°C 91% 0.7 mph E1.1 kmh E 0.7 mph1.1 kmh 29.34 in993.6 mb 0.00 in0.0 mm 0.00 in0.0 mm 0.09 in2.3 mm
04:40 PM 44.2°F6.8°C 41.8°F5.4°C 91% 0.7 mph E1.1 kmh E 0.7 mph1.1 kmh 29.34 in993.6 mb 0.00 in0.0 mm 0.00 in0.0 mm 0.09 in2.3 mm
04:50 PM 44.2°F6.8°C 41.8°F5.4°C 91% 0.7 mph E1.1 kmh E 0.7 mph1.1 kmh 29.34 in993.6 mb 0.00 in0.0 mm 0.00 in0.0 mm 0.09 in2.3 mm
05:00 PM 44.2°F6.8°C 41.8°F5.4°C 91% 0.7 mph E1.1 kmh E 0.7 mph1.1 kmh 29.35 in993.9 mb 0.00 in0.0 mm 0.00 in0.0 mm 0.09 in2.3 mm
05:10 PM 44.2°F6.8°C 41.8°F5.4°C 91% 0.7 mph E1.1 kmh E 0.7 mph1.1 kmh 29.35 in993.9 mb 0.00 in0.0 mm 0.00 in0.0 mm 0.09 in2.3 mm
05:20 PM 44.2°F6.8°C 41.8°F5.4°C 91% 0.7 mph E1.1 kmh E 0.7 mph1.1 kmh 29.35 in993.9 mb 0.00 in0.0 mm 0.00 in0.0 mm 0.09 in2.3 mm
05:30 PM 44.2°F6.8°C 41.8°F5.4°C 91% 0.7 mph E1.1 kmh E 0.7 mph1.1 kmh 29.35 in993.9 mb 0.00 in0.0 mm 0.00 in0.0 mm 0.09 in2.3 mm
05:40 PM 44.2°F6.8°C 41.8°F5.4°C 91% 0.7 mph E1.1 kmh E 0.7 mph1.1 kmh 29.36 in994.2 mb 0.00 in0.0 mm 0.00 in0.0 mm 0.09 in2.3 mm
05:50 PM 44.2°F6.8°C 41.8°F5.4°C 91% 0.7 mph E1.1 kmh E 0.7 mph1.1 kmh 29.35 in993.9 mb 0.00 in0.0 mm 0.00 in0.0 mm 0.09 in2.3 mm
06:00 PM 44.2°F6.8°C 41.8°F5.4°C 91% 0.7 mph E1.1 kmh E 0.7 mph1.1 kmh 29.35 in993.9 mb 0.00 in0.0 mm 0.00 in0.0 mm 0.09 in2.3 mm
06:10 PM 44.2°F6.8°C 41.8°F5.4°C 91% 0.7 mph E1.1 kmh E 0.7 mph1.1 kmh 29.36 in994.2 mb 0.00 in0.0 mm 0.00 in0.0 mm 0.09 in2.3 mm
06:20 PM 44.2°F6.8°C 41.8°F5.4°C 91% 0.7 mph E1.1 kmh E 0.7 mph1.1 kmh 29.36 in994.2 mb 0.00 in0.0 mm 0.00 in0.0 mm 0.09 in2.3 mm
06:30 PM 44.2°F6.8°C 41.8°F5.4°C 91% 0.7 mph E1.1 kmh E 0.7 mph1.1 kmh 29.36 in994.2 mb 0.00 in0.0 mm 0.00 in0.0 mm 0.09 in2.3 mm
06:40 PM 44.2°F6.8°C 41.8°F5.4°C 91% 0.7 mph E1.1 kmh E 0.7 mph1.1 kmh 29.37 in994.6 mb 0.00 in0.0 mm 0.00 in0.0 mm 0.09 in2.3 mm
06:50 PM 44.2°F6.8°C 41.8°F5.4°C 91% 0.7 mph E1.1 kmh E 0.7 mph1.1 kmh 29.37 in994.6 mb 0.00 in0.0 mm 0.00 in0.0 mm 0.09 in2.3 mm
07:00 PM 44.2°F6.8°C 41.8°F5.4°C 91% 0.7 mph E1.1 kmh E 0.7 mph1.1 kmh 29.38 in994.9 mb 0.00 in0.0 mm 0.00 in0.0 mm 0.09 in2.3 mm
07:10 PM 44.2°F6.8°C 41.8°F5.4°C 91% 0.7 mph E1.1 kmh E 0.7 mph1.1 kmh 29.38 in994.9 mb 0.00 in0.0 mm 0.00 in0.0 mm 0.09 in2.3 mm
07:20 PM 44.2°F6.8°C 41.8°F5.4°C 91% 0.7 mph E1.1 kmh E 0.7 mph1.1 kmh 29.38 in994.9 mb 0.00 in0.0 mm 0.00 in0.0 mm 0.09 in2.3 mm
07:30 PM 44.2°F6.8°C 41.8°F5.4°C 91% 0.7 mph E1.1 kmh E 0.7 mph1.1 kmh 29.39 in995.3 mb 0.00 in0.0 mm 0.00 in0.0 mm 0.09 in2.3 mm
07:40 PM 44.2°F6.8°C 41.8°F5.4°C 91% 0.7 mph E1.1 kmh E 0.7 mph1.1 kmh 29.39 in995.3 mb 0.00 in0.0 mm 0.00 in0.0 mm 0.09 in2.3 mm
07:50 PM 44.2°F6.8°C 41.8°F5.4°C 91% 0.7 mph E1.1 kmh E 0.7 mph1.1 kmh 29.39 in995.3 mb 0.00 in0.0 mm 0.00 in0.0 mm 0.09 in2.3 mm
08:00 PM 44.2°F6.8°C 41.8°F5.4°C 91% 0.7 mph E1.1 kmh E 0.7 mph1.1 kmh 29.40 in995.6 mb 0.00 in0.0 mm 0.00 in0.0 mm 0.09 in2.3 mm
08:10 PM 44.2°F6.8°C 41.8°F5.4°C 91% 0.7 mph E1.1 kmh E 0.7 mph1.1 kmh 29.40 in995.6 mb 0.00 in0.0 mm 0.00 in0.0 mm 0.09 in2.3 mm
08:20 PM 44.2°F6.8°C 41.8°F5.4°C 91% 0.7 mph E1.1 kmh E 0.7 mph1.1 kmh 29.41 in995.9 mb 0.00 in0.0 mm 0.00 in0.0 mm 0.09 in2.3 mm
08:30 PM 44.2°F6.8°C 41.8°F5.4°C 91% 0.7 mph E1.1 kmh E 0.7 mph1.1 kmh 29.41 in995.9 mb 0.00 in0.0 mm 0.00 in0.0 mm 0.09 in2.3 mm
08:40 PM 44.2°F6.8°C 41.8°F5.4°C 91% 0.7 mph E1.1 kmh E 0.7 mph1.1 kmh 29.41 in995.9 mb 0.00 in0.0 mm 0.00 in0.0 mm 0.09 in2.3 mm
08:50 PM 44.2°F6.8°C 41.8°F5.4°C 91% 0.7 mph E1.1 kmh E 0.7 mph1.1 kmh 29.43 in996.6 mb 0.00 in0.0 mm 0.00 in0.0 mm 0.09 in2.3 mm
09:00 PM 44.2°F6.8°C 41.8°F5.4°C 91% 0.7 mph E1.1 kmh E 0.7 mph1.1 kmh 29.43 in996.6 mb 0.00 in0.0 mm 0.00 in0.0 mm 0.09 in2.3 mm
09:10 PM 44.2°F6.8°C 41.8°F5.4°C 91% 0.7 mph E1.1 kmh E 0.7 mph1.1 kmh 29.43 in996.6 mb 0.00 in0.0 mm 0.00 in0.0 mm 0.09 in2.3 mm
09:20 PM 47.7°F8.7°C 43.7°F6.5°C 86% 1.7 mph N2.7 kmh N 10.7 mph17.2 kmh 29.43 in996.6 mb 0.00 in0.0 mm 0.00 in0.0 mm 0.09 in2.3 mm
09:30 PM 47.7°F8.7°C 43.7°F6.5°C 86% 5.3 mph NW8.5 kmh NW 10.7 mph17.2 kmh 29.43 in996.6 mb 0.00 in0.0 mm 0.00 in0.0 mm 0.07 in1.8 mm
09:40 PM 47.7°F8.7°C 43.7°F6.5°C 86% 5.5 mph NNE8.9 kmh NNE 8.3 mph13.4 kmh 29.44 in997.0 mb 0.00 in0.0 mm 0.00 in0.0 mm 0.07 in1.8 mm
09:50 PM 47.5°F8.6°C 43.5°F6.4°C 86% 6.1 mph N9.8 kmh N 8.3 mph13.4 kmh 29.44 in997.0 mb 0.00 in0.0 mm 0.00 in0.0 mm 0.07 in1.8 mm
10:00 PM 47.3°F8.5°C 43.3°F6.3°C 86% 8.1 mph NW13.0 kmh NW 11.4 mph18.3 kmh 29.44 in997.0 mb 0.00 in0.0 mm 0.00 in0.0 mm 0.07 in1.8 mm
10:10 PM 47.3°F8.5°C 43.3°F6.3°C 86% 6.6 mph NNW10.6 kmh NNW 9.2 mph14.8 kmh 29.43 in996.6 mb 0.00 in0.0 mm 0.00 in0.0 mm 0.07 in1.8 mm
10:20 PM 47.1°F8.4°C 43.2°F6.2°C 86% 8.5 mph NNW13.7 kmh NNW 11.4 mph18.3 kmh 29.44 in997.0 mb 0.00 in0.0 mm 0.00 in0.0 mm 0.07 in1.8 mm
10:30 PM 46.9°F8.3°C 43.0°F6.1°C 86% 6.1 mph NNW9.8 kmh NNW 9.8 mph15.8 kmh 29.44 in997.0 mb 0.00 in0.0 mm 0.00 in0.0 mm 0.07 in1.8 mm
10:40 PM 46.6°F8.1°C 42.6°F5.9°C 86% 6.8 mph NNW10.9 kmh NNW 10.7 mph17.2 kmh 29.44 in997.0 mb 0.00 in0.0 mm 0.00 in0.0 mm 0.07 in1.8 mm
10:50 PM 46.6°F8.1°C 42.6°F5.9°C 86% 4.9 mph N7.9 kmh N 9.2 mph14.8 kmh 29.45 in997.3 mb 0.00 in0.0 mm 0.00 in0.0 mm 0.07 in1.8 mm
11:00 PM 46.6°F8.1°C 42.6°F5.9°C 86% 4.6 mph N7.4 kmh N 9.2 mph14.8 kmh 29.45 in997.3 mb 0.00 in0.0 mm 0.00 in0.0 mm 0.07 in1.8 mm
11:10 PM 46.6°F8.1°C 42.6°F5.9°C 86% 4.6 mph N7.4 kmh N 9.2 mph14.8 kmh 29.45 in997.3 mb 0.00 in0.0 mm 0.00 in0.0 mm 0.07 in1.8 mm
11:20 PM 46.6°F8.1°C 42.6°F5.9°C 86% 4.6 mph N7.4 kmh N 9.2 mph14.8 kmh 29.46 in997.6 mb 0.00 in0.0 mm 0.00 in0.0 mm 0.07 in1.8 mm
11:30 PM 46.6°F8.1°C 42.6°F5.9°C 86% 4.6 mph N7.4 kmh N 9.2 mph14.8 kmh 29.46 in997.6 mb 0.00 in0.0 mm 0.00 in0.0 mm 0.07 in1.8 mm
11:40 PM 46.6°F8.1°C 42.6°F5.9°C 86% 4.6 mph N7.4 kmh N 9.2 mph14.8 kmh 29.46 in997.6 mb 0.00 in0.0 mm 0.00 in0.0 mm 0.07 in1.8 mm
11:50 PM 46.6°F8.1°C 42.6°F5.9°C 86% 4.6 mph N7.4 kmh N 9.2 mph14.8 kmh 29.46 in997.6 mb 0.00 in0.0 mm 0.00 in0.0 mm 0.07 in1.8 mm